sensor_id;sensor_type;location;lat;lon;timestamp;temperature;humidity
68248;SHT30;55064;49.636;12.164;2022-08-21T00:00:13;17.46;93.12
68248;SHT30;55064;49.636;12.164;2022-08-21T00:02:48;17.37;93.46
68248;SHT30;55064;49.636;12.164;2022-08-21T00:05:17;17.37;93.18
68248;SHT30;55064;49.636;12.164;2022-08-21T00:07:44;17.32;93.39
68248;SHT30;55064;49.636;12.164;2022-08-21T00:10:13;17.37;93.05
68248;SHT30;55064;49.636;12.164;2022-08-21T00:12:44;17.39;93.18
68248;SHT30;55064;49.636;12.164;2022-08-21T00:15:14;17.46;93.15
68248;SHT30;55064;49.636;12.164;2022-08-21T00:17:40;17.42;93.29
68248;SHT30;55064;49.636;12.164;2022-08-21T00:20:11;17.29;93.60
68248;SHT30;55064;49.636;12.164;2022-08-21T00:22:37;17.16;93.87
68248;SHT30;55064;49.636;12.164;2022-08-21T00:25:04;17.14;94.13
68248;SHT30;55064;49.636;12.164;2022-08-21T00:27:31;17.19;94.13
68248;SHT30;55064;49.636;12.164;2022-08-21T00:29:59;17.22;93.73
68248;SHT30;55064;49.636;12.164;2022-08-21T00:32:25;17.23;93.80
68248;SHT30;55064;49.636;12.164;2022-08-21T00:34:52;17.19;93.55
68248;SHT30;55064;49.636;12.164;2022-08-21T00:37:17;17.22;93.76
68248;SHT30;55064;49.636;12.164;2022-08-21T00:39:43;17.29;92.88
68248;SHT30;55064;49.636;12.164;2022-08-21T00:42:09;17.39;92.54
68248;SHT30;55064;49.636;12.164;2022-08-21T00:44:41;17.36;92.99
68248;SHT30;55064;49.636;12.164;2022-08-21T00:47:06;17.30;92.93
68248;SHT30;55064;49.636;12.164;2022-08-21T00:49:32;17.14;93.63
68248;SHT30;55064;49.636;12.164;2022-08-21T00:51:59;17.11;93.73
68248;SHT30;55064;49.636;12.164;2022-08-21T00:54:27;17.18;93.74
68248;SHT30;55064;49.636;12.164;2022-08-21T00:57:00;17.25;93.32
68248;SHT30;55064;49.636;12.164;2022-08-21T00:59:33;17.29;92.87
68248;SHT30;55064;49.636;12.164;2022-08-21T01:02:02;17.30;93.14
68248;SHT30;55064;49.636;12.164;2022-08-21T01:04:31;17.34;92.53
68248;SHT30;55064;49.636;12.164;2022-08-21T01:06:59;17.33;92.73
68248;SHT30;55064;49.636;12.164;2022-08-21T01:09:26;17.30;92.71
68248;SHT30;55064;49.636;12.164;2022-08-21T01:11:57;17.33;92.14
68248;SHT30;55064;49.636;12.164;2022-08-21T01:14:25;17.25;93.06
68248;SHT30;55064;49.636;12.164;2022-08-21T01:16:56;17.23;93.26
68248;SHT30;55064;49.636;12.164;2022-08-21T01:19:23;17.30;92.85
68248;SHT30;55064;49.636;12.164;2022-08-21T01:21:52;17.27;92.75
68248;SHT30;55064;49.636;12.164;2022-08-21T01:24:21;17.33;92.76
68248;SHT30;55064;49.636;12.164;2022-08-21T01:26:48;17.33;92.63
68248;SHT30;55064;49.636;12.164;2022-08-21T01:29:34;17.33;92.66
68248;SHT30;55064;49.636;12.164;2022-08-21T01:32:07;17.33;92.59
68248;SHT30;55064;49.636;12.164;2022-08-21T01:34:34;17.29;93.12
68248;SHT30;55064;49.636;12.164;2022-08-21T01:37:04;17.16;93.35
68248;SHT30;55064;49.636;12.164;2022-08-21T01:39:35;17.19;94.12
68248;SHT30;55064;49.636;12.164;2022-08-21T01:42:01;17.25;93.59
68248;SHT30;55064;49.636;12.164;2022-08-21T01:44:29;17.30;93.73
68248;SHT30;55064;49.636;12.164;2022-08-21T01:46:55;17.29;94.00
68248;SHT30;55064;49.636;12.164;2022-08-21T01:49:20;17.30;94.45
68248;SHT30;55064;49.636;12.164;2022-08-21T01:51:46;17.33;94.35
68248;SHT30;55064;49.636;12.164;2022-08-21T01:54:12;17.33;94.50
68248;SHT30;55064;49.636;12.164;2022-08-21T01:56:41;17.32;94.18
68248;SHT30;55064;49.636;12.164;2022-08-21T01:59:08;17.33;94.46
68248;SHT30;55064;49.636;12.164;2022-08-21T02:01:36;17.32;94.52
68248;SHT30;55064;49.636;12.164;2022-08-21T02:04:07;17.30;94.46
68248;SHT30;55064;49.636;12.164;2022-08-21T02:06:33;17.32;94.38
68248;SHT30;55064;49.636;12.164;2022-08-21T02:09:00;17.39;93.94
68248;SHT30;55064;49.636;12.164;2022-08-21T02:11:27;17.34;94.12
68248;SHT30;55064;49.636;12.164;2022-08-21T02:13:53;17.37;94.30
68248;SHT30;55064;49.636;12.164;2022-08-21T02:16:18;17.30;94.28
68248;SHT30;55064;49.636;12.164;2022-08-21T02:18:44;17.30;94.42
68248;SHT30;55064;49.636;12.164;2022-08-21T02:21:09;17.32;94.53
68248;SHT30;55064;49.636;12.164;2022-08-21T02:23:35;17.30;94.50
68248;SHT30;55064;49.636;12.164;2022-08-21T02:26:06;17.30;94.66
68248;SHT30;55064;49.636;12.164;2022-08-21T02:28:34;17.27;94.88
68248;SHT30;55064;49.636;12.164;2022-08-21T02:31:01;17.34;94.45
68248;SHT30;55064;49.636;12.164;2022-08-21T02:33:29;17.32;94.73
68248;SHT30;55064;49.636;12.164;2022-08-21T02:35:55;17.29;94.75
68248;SHT30;55064;49.636;12.164;2022-08-21T02:38:31;17.32;94.65
68248;SHT30;55064;49.636;12.164;2022-08-21T02:40:58;17.26;94.59
68248;SHT30;55064;49.636;12.164;2022-08-21T02:43:25;17.29;94.77
68248;SHT30;55064;49.636;12.164;2022-08-21T02:45:56;17.27;94.91
68248;SHT30;55064;49.636;12.164;2022-08-21T02:48:27;17.30;94.73
68248;SHT30;55064;49.636;12.164;2022-08-21T02:51:16;17.29;94.21
68248;SHT30;55064;49.636;12.164;2022-08-21T02:53:43;17.34;94.24
68248;SHT30;55064;49.636;12.164;2022-08-21T02:56:11;17.40;94.12
68248;SHT30;55064;49.636;12.164;2022-08-21T02:58:40;17.36;94.31
68248;SHT30;55064;49.636;12.164;2022-08-21T03:01:09;17.34;93.88
68248;SHT30;55064;49.636;12.164;2022-08-21T03:03:36;17.37;93.98
68248;SHT30;55064;49.636;12.164;2022-08-21T03:06:05;17.39;94.12
68248;SHT30;55064;49.636;12.164;2022-08-21T03:08:32;17.36;94.39
68248;SHT30;55064;49.636;12.164;2022-08-21T03:10:57;17.40;94.12
68248;SHT30;55064;49.636;12.164;2022-08-21T03:13:26;17.36;94.24
68248;SHT30;55064;49.636;12.164;2022-08-21T03:15:51;17.34;94.51
68248;SHT30;55064;49.636;12.164;2022-08-21T03:18:17;17.33;94.79
68248;SHT30;55064;49.636;12.164;2022-08-21T03:20:44;17.30;94.77
68248;SHT30;55064;49.636;12.164;2022-08-21T03:23:10;17.26;94.81
68248;SHT30;55064;49.636;12.164;2022-08-21T03:25:36;17.26;94.81
68248;SHT30;55064;49.636;12.164;2022-08-21T03:28:07;17.27;94.62
68248;SHT30;55064;49.636;12.164;2022-08-21T03:30:35;17.26;94.51
68248;SHT30;55064;49.636;12.164;2022-08-21T03:33:03;17.29;94.63
68248;SHT30;55064;49.636;12.164;2022-08-21T03:35:29;17.27;94.46
68248;SHT30;55064;49.636;12.164;2022-08-21T03:37:55;17.34;93.58
68248;SHT30;55064;49.636;12.164;2022-08-21T03:40:22;17.33;93.85
68248;SHT30;55064;49.636;12.164;2022-08-21T03:42:47;17.34;93.89
68248;SHT30;55064;49.636;12.164;2022-08-21T03:45:15;17.36;93.76
68248;SHT30;55064;49.636;12.164;2022-08-21T03:48:03;17.36;93.69
68248;SHT30;55064;49.636;12.164;2022-08-21T03:50:32;17.30;94.13
68248;SHT30;55064;49.636;12.164;2022-08-21T03:53:00;17.32;93.33
68248;SHT30;55064;49.636;12.164;2022-08-21T03:55:26;17.36;93.21
68248;SHT30;55064;49.636;12.164;2022-08-21T03:57:55;17.36;93.23
68248;SHT30;55064;49.636;12.164;2022-08-21T04:00:24;17.34;93.54
68248;SHT30;55064;49.636;12.164;2022-08-21T04:02:51;17.27;93.97
68248;SHT30;55064;49.636;12.164;2022-08-21T04:05:17;17.26;94.25
68248;SHT30;55064;49.636;12.164;2022-08-21T04:07:59;17.25;93.82
68248;SHT30;55064;49.636;12.164;2022-08-21T04:10:28;17.19;94.23
68248;SHT30;55064;49.636;12.164;2022-08-21T04:12:57;17.23;93.91
68248;SHT30;55064;49.636;12.164;2022-08-21T04:15:25;17.20;94.19
68248;SHT30;55064;49.636;12.164;2022-08-21T04:17:51;17.15;94.00
68248;SHT30;55064;49.636;12.164;2022-08-21T04:20:20;17.19;93.89
68248;SHT30;55064;49.636;12.164;2022-08-21T04:22:47;17.18;94.18
68248;SHT30;55064;49.636;12.164;2022-08-21T04:25:16;17.22;93.48
68248;SHT30;55064;49.636;12.164;2022-08-21T04:27:44;17.26;93.37
68248;SHT30;55064;49.636;12.164;2022-08-21T04:30:14;17.27;93.15
68248;SHT30;55064;49.636;12.164;2022-08-21T04:32:47;17.27;93.59
68248;SHT30;55064;49.636;12.164;2022-08-21T04:35:15;17.26;93.08
68248;SHT30;55064;49.636;12.164;2022-08-21T04:37:45;17.20;93.90
68248;SHT30;55064;49.636;12.164;2022-08-21T04:40:13;17.16;94.16
68248;SHT30;55064;49.636;12.164;2022-08-21T04:42:47;17.16;94.00
68248;SHT30;55064;49.636;12.164;2022-08-21T04:45:24;17.18;93.66
68248;SHT30;55064;49.636;12.164;2022-08-21T04:47:56;17.25;93.40
68248;SHT30;55064;49.636;12.164;2022-08-21T04:50:26;17.26;93.14
68248;SHT30;55064;49.636;12.164;2022-08-21T04:52:53;17.26;93.25
68248;SHT30;55064;49.636;12.164;2022-08-21T04:55:20;17.26;93.71
68248;SHT30;55064;49.636;12.164;2022-08-21T04:57:49;17.26;93.64
68248;SHT30;55064;49.636;12.164;2022-08-21T05:00:22;17.30;93.26
68248;SHT30;55064;49.636;12.164;2022-08-21T05:02:52;17.26;93.64
68248;SHT30;55064;49.636;12.164;2022-08-21T05:05:21;17.27;93.35
68248;SHT30;55064;49.636;12.164;2022-08-21T05:07:46;17.29;92.92
68248;SHT30;55064;49.636;12.164;2022-08-21T05:10:13;17.32;92.80
68248;SHT30;55064;49.636;12.164;2022-08-21T05:12:40;17.36;93.00
68248;SHT30;55064;49.636;12.164;2022-08-21T05:15:07;17.43;92.73
68248;SHT30;55064;49.636;12.164;2022-08-21T05:17:35;17.37;92.77
68248;SHT30;55064;49.636;12.164;2022-08-21T05:20:01;17.42;92.48
68248;SHT30;55064;49.636;12.164;2022-08-21T05:22:28;17.37;92.34
68248;SHT30;55064;49.636;12.164;2022-08-21T05:24:53;17.34;92.55
68248;SHT30;55064;49.636;12.164;2022-08-21T05:27:21;17.42;92.47
68248;SHT30;55064;49.636;12.164;2022-08-21T05:29:46;17.37;92.70
68248;SHT30;55064;49.636;12.164;2022-08-21T05:32:13;17.34;93.20
68248;SHT30;55064;49.636;12.164;2022-08-21T05:34:38;17.33;92.93
68248;SHT30;55064;49.636;12.164;2022-08-21T05:37:04;17.37;92.69
68248;SHT30;55064;49.636;12.164;2022-08-21T05:39:30;17.39;92.82
68248;SHT30;55064;49.636;12.164;2022-08-21T05:41:58;17.43;92.16
68248;SHT30;55064;49.636;12.164;2022-08-21T05:44:23;17.46;92.45
68248;SHT30;55064;49.636;12.164;2022-08-21T05:46:48;17.44;92.37
68248;SHT30;55064;49.636;12.164;2022-08-21T05:49:14;17.49;92.13
68248;SHT30;55064;49.636;12.164;2022-08-21T05:51:42;17.54;91.63
68248;SHT30;55064;49.636;12.164;2022-08-21T05:54:10;17.53;91.40
68248;SHT30;55064;49.636;12.164;2022-08-21T05:56:36;17.57;90.83
68248;SHT30;55064;49.636;12.164;2022-08-21T05:59:04;17.53;91.62
68248;SHT30;55064;49.636;12.164;2022-08-21T06:01:32;17.47;91.25
68248;SHT30;55064;49.636;12.164;2022-08-21T06:04:00;17.49;90.75
68248;SHT30;55064;49.636;12.164;2022-08-21T06:06:28;17.54;90.53
68248;SHT30;55064;49.636;12.164;2022-08-21T06:08:56;17.54;90.83
68248;SHT30;55064;49.636;12.164;2022-08-21T06:11:24;17.59;90.93
68248;SHT30;55064;49.636;12.164;2022-08-21T06:13:52;17.57;90.73
68248;SHT30;55064;49.636;12.164;2022-08-21T06:16:18;17.55;91.11
68248;SHT30;55064;49.636;12.164;2022-08-21T06:18:46;17.53;91.24
68248;SHT30;55064;49.636;12.164;2022-08-21T06:21:12;17.53;91.26
68248;SHT30;55064;49.636;12.164;2022-08-21T06:23:39;17.53;91.37
68248;SHT30;55064;49.636;12.164;2022-08-21T06:26:08;17.57;91.33
68248;SHT30;55064;49.636;12.164;2022-08-21T06:28:35;17.55;91.40
68248;SHT30;55064;49.636;12.164;2022-08-21T06:31:10;17.55;90.97
68248;SHT30;55064;49.636;12.164;2022-08-21T06:33:36;17.53;91.07
68248;SHT30;55064;49.636;12.164;2022-08-21T06:36:04;17.53;91.29
68248;SHT30;55064;49.636;12.164;2022-08-21T06:38:32;17.55;91.23
68248;SHT30;55064;49.636;12.164;2022-08-21T06:40:57;17.54;91.00
68248;SHT30;55064;49.636;12.164;2022-08-21T06:43:22;17.61;90.80
68248;SHT30;55064;49.636;12.164;2022-08-21T06:45:53;17.63;90.94
68248;SHT30;55064;49.636;12.164;2022-08-21T06:48:18;17.67;90.70
68248;SHT30;55064;49.636;12.164;2022-08-21T06:50:44;17.69;90.50
68248;SHT30;55064;49.636;12.164;2022-08-21T06:53:16;17.73;90.55
68248;SHT30;55064;49.636;12.164;2022-08-21T06:55:45;17.75;90.22
68248;SHT30;55064;49.636;12.164;2022-08-21T06:58:10;17.75;89.88
68248;SHT30;55064;49.636;12.164;2022-08-21T07:00:40;17.80;90.01
68248;SHT30;55064;49.636;12.164;2022-08-21T07:03:19;17.77;90.31
68248;SHT30;55064;49.636;12.164;2022-08-21T07:05:45;17.80;90.28
68248;SHT30;55064;49.636;12.164;2022-08-21T07:08:10;17.84;89.86
68248;SHT30;55064;49.636;12.164;2022-08-21T07:10:38;17.88;89.54
68248;SHT30;55064;49.636;12.164;2022-08-21T07:13:04;17.94;89.60
68248;SHT30;55064;49.636;12.164;2022-08-21T07:15:30;18.02;89.20
68248;SHT30;55064;49.636;12.164;2022-08-21T07:17:55;18.06;89.06
68248;SHT30;55064;49.636;12.164;2022-08-21T07:20:22;18.15;88.65
68248;SHT30;55064;49.636;12.164;2022-08-21T07:22:47;18.16;88.90
68248;SHT30;55064;49.636;12.164;2022-08-21T07:25:13;18.25;88.25
68248;SHT30;55064;49.636;12.164;2022-08-21T07:27:38;18.32;87.89
68248;SHT30;55064;49.636;12.164;2022-08-21T07:30:05;18.29;88.25
68248;SHT30;55064;49.636;12.164;2022-08-21T07:32:33;18.33;87.94
68248;SHT30;55064;49.636;12.164;2022-08-21T07:35:02;18.39;87.84
68248;SHT30;55064;49.636;12.164;2022-08-21T07:37:28;18.42;87.69
68248;SHT30;55064;49.636;12.164;2022-08-21T07:39:53;18.42;87.87
68248;SHT30;55064;49.636;12.164;2022-08-21T07:42:18;18.49;87.48
68248;SHT30;55064;49.636;12.164;2022-08-21T07:44:44;18.54;87.06
68248;SHT30;55064;49.636;12.164;2022-08-21T07:47:09;18.67;86.80
68248;SHT30;55064;49.636;12.164;2022-08-21T07:49:35;18.78;86.79
68248;SHT30;55064;49.636;12.164;2022-08-21T07:52:00;18.94;86.62
68248;SHT30;55064;49.636;12.164;2022-08-21T07:54:26;19.02;85.67
68248;SHT30;55064;49.636;12.164;2022-08-21T07:56:52;19.14;85.30
68248;SHT30;55064;49.636;12.164;2022-08-21T07:59:17;19.19;84.95
68248;SHT30;55064;49.636;12.164;2022-08-21T08:01:43;19.18;85.16
68248;SHT30;55064;49.636;12.164;2022-08-21T08:04:10;19.18;84.65
68248;SHT30;55064;49.636;12.164;2022-08-21T08:06:36;19.25;84.65
68248;SHT30;55064;49.636;12.164;2022-08-21T08:09:02;19.40;83.79
68248;SHT30;55064;49.636;12.164;2022-08-21T08:11:29;19.57;82.94
68248;SHT30;55064;49.636;12.164;2022-08-21T08:13:55;19.69;82.40
68248;SHT30;55064;49.636;12.164;2022-08-21T08:16:22;19.74;82.22
68248;SHT30;55064;49.636;12.164;2022-08-21T08:18:50;19.64;82.00
68248;SHT30;55064;49.636;12.164;2022-08-21T08:21:18;19.69;81.31
68248;SHT30;55064;49.636;12.164;2022-08-21T08:23:49;19.70;81.73
68248;SHT30;55064;49.636;12.164;2022-08-21T08:26:15;19.85;81.82
68248;SHT30;55064;49.636;12.164;2022-08-21T08:28:45;20.05;81.18
68248;SHT30;55064;49.636;12.164;2022-08-21T08:31:15;20.33;80.13
68248;SHT30;55064;49.636;12.164;2022-08-21T08:33:43;20.63;77.67
68248;SHT30;55064;49.636;12.164;2022-08-21T08:36:17;20.76;77.25
68248;SHT30;55064;49.636;12.164;2022-08-21T08:38:43;20.79;76.04
68248;SHT30;55064;49.636;12.164;2022-08-21T08:43:51;20.77;77.21
68248;SHT30;55064;49.636;12.164;2022-08-21T08:46:20;20.73;76.35
68248;SHT30;55064;49.636;12.164;2022-08-21T08:49:27;20.56;77.93
68248;SHT30;55064;49.636;12.164;2022-08-21T08:54:40;20.53;77.97
68248;SHT30;55064;49.636;12.164;2022-08-21T08:57:14;20.53;77.56
68248;SHT30;55064;49.636;12.164;2022-08-21T08:59:48;20.59;76.82
68248;SHT30;55064;49.636;12.164;2022-08-21T09:02:17;20.62;76.31
68248;SHT30;55064;49.636;12.164;2022-08-21T09:04:47;21.08;75.65
68248;SHT30;55064;49.636;12.164;2022-08-21T09:18:16;21.08;72.06
68248;SHT30;55064;49.636;12.164;2022-08-21T09:23:32;21.69;71.79
68248;SHT30;55064;49.636;12.164;2022-08-21T09:26:14;21.72;71.78
68248;SHT30;55064;49.636;12.164;2022-08-21T09:28:42;22.04;71.75
68248;SHT30;55064;49.636;12.164;2022-08-21T09:31:22;22.49;69.90
68248;SHT30;55064;49.636;12.164;2022-08-21T09:33:59;22.96;68.31
68248;SHT30;55064;49.636;12.164;2022-08-21T09:36:39;22.94;68.02
68248;SHT30;55064;49.636;12.164;2022-08-21T09:39:08;23.02;70.30
68248;SHT30;55064;49.636;12.164;2022-08-21T09:41:37;22.53;69.90
68248;SHT30;55064;49.636;12.164;2022-08-21T09:44:07;22.31;71.31
68248;SHT30;55064;49.636;12.164;2022-08-21T09:46:33;22.07;70.96
68248;SHT30;55064;49.636;12.164;2022-08-21T09:49:03;21.70;72.31
68248;SHT30;55064;49.636;12.164;2022-08-21T09:51:35;22.51;71.47
68248;SHT30;55064;49.636;12.164;2022-08-21T09:56:35;23.24;69.10
68248;SHT30;55064;49.636;12.164;2022-08-21T09:59:33;23.65;66.49
68248;SHT30;55064;49.636;12.164;2022-08-21T10:02:07;22.85;68.01
68248;SHT30;55064;49.636;12.164;2022-08-21T10:04:50;22.94;68.08
68248;SHT30;55064;49.636;12.164;2022-08-21T10:07:23;22.87;65.95
68248;SHT30;55064;49.636;12.164;2022-08-21T10:10:08;23.47;66.02
68248;SHT30;55064;49.636;12.164;2022-08-21T10:20:46;23.76;64.93
68248;SHT30;55064;49.636;12.164;2022-08-21T10:23:45;23.76;65.32
68248;SHT30;55064;49.636;12.164;2022-08-21T10:29:23;22.62;67.53
68248;SHT30;55064;49.636;12.164;2022-08-21T10:43:02;22.05;68.53
68248;SHT30;55064;49.636;12.164;2022-08-21T10:48:37;22.83;67.10
68248;SHT30;55064;49.636;12.164;2022-08-21T10:51:09;23.15;67.69
68248;SHT30;55064;49.636;12.164;2022-08-21T10:53:47;23.35;66.84
68248;SHT30;55064;49.636;12.164;2022-08-21T10:56:22;23.82;64.93
68248;SHT30;55064;49.636;12.164;2022-08-21T11:05:12;24.41;62.17
68248;SHT30;55064;49.636;12.164;2022-08-21T11:07:53;24.17;61.67
68248;SHT30;55064;49.636;12.164;2022-08-21T11:10:24;24.07;63.13
68248;SHT30;55064;49.636;12.164;2022-08-21T11:16:00;23.89;63.53
68248;SHT30;55064;49.636;12.164;2022-08-21T11:21:38;23.80;61.59
68248;SHT30;55064;49.636;12.164;2022-08-21T11:24:21;23.89;62.39
68248;SHT30;55064;49.636;12.164;2022-08-21T11:27:24;24.17;61.63
68248;SHT30;55064;49.636;12.164;2022-08-21T11:29:55;24.75;58.00
68248;SHT30;55064;49.636;12.164;2022-08-21T11:41:29;23.75;62.35
68248;SHT30;55064;49.636;12.164;2022-08-21T11:43:48;23.69;62.26
68248;SHT30;55064;49.636;12.164;2022-08-21T11:46:44;23.62;62.39
68248;SHT30;55064;49.636;12.164;2022-08-21T11:52:13;23.62;62.54
68248;SHT30;55064;49.636;12.164;2022-08-21T11:55:00;23.70;62.28
68248;SHT30;55064;49.636;12.164;2022-08-21T11:57:32;23.18;62.79
68248;SHT30;55064;49.636;12.164;2022-08-21T12:00:11;23.45;63.10
68248;SHT30;55064;49.636;12.164;2022-08-21T12:02:55;23.61;62.24
68248;SHT30;55064;49.636;12.164;2022-08-21T12:08:10;23.47;62.45
68248;SHT30;55064;49.636;12.164;2022-08-21T12:10:59;23.58;62.79
68248;SHT30;55064;49.636;12.164;2022-08-21T12:13:32;23.57;61.99
68248;SHT30;55064;49.636;12.164;2022-08-21T12:16:11;23.32;62.23
68248;SHT30;55064;49.636;12.164;2022-08-21T12:18:42;23.40;62.37
68248;SHT30;55064;49.636;12.164;2022-08-21T12:26:34;23.48;61.27
68248;SHT30;55064;49.636;12.164;2022-08-21T12:29:32;23.41;61.52
68248;SHT30;55064;49.636;12.164;2022-08-21T12:32:25;23.37;61.39
68248;SHT30;55064;49.636;12.164;2022-08-21T12:35:06;23.42;62.22
68248;SHT30;55064;49.636;12.164;2022-08-21T12:40:26;23.38;62.69
68248;SHT30;55064;49.636;12.164;2022-08-21T12:42:58;23.31;62.86
68248;SHT30;55064;49.636;12.164;2022-08-21T12:45:30;23.37;63.45
68248;SHT30;55064;49.636;12.164;2022-08-21T12:48:00;23.23;64.94
68248;SHT30;55064;49.636;12.164;2022-08-21T12:53:05;22.92;65.49
68248;SHT30;55064;49.636;12.164;2022-08-21T12:55:37;22.94;65.68
68248;SHT30;55064;49.636;12.164;2022-08-21T12:58:17;23.06;65.44
68248;SHT30;55064;49.636;12.164;2022-08-21T13:00:49;22.99;66.36
68248;SHT30;55064;49.636;12.164;2022-08-21T13:03:15;22.93;67.61
68248;SHT30;55064;49.636;12.164;2022-08-21T13:05:43;23.23;67.38
68248;SHT30;55064;49.636;12.164;2022-08-21T13:08:12;23.20;65.56
68248;SHT30;55064;49.636;12.164;2022-08-21T13:10:43;23.03;66.31
68248;SHT30;55064;49.636;12.164;2022-08-21T13:13:32;23.02;66.23
68248;SHT30;55064;49.636;12.164;2022-08-21T13:16:03;23.02;65.30
68248;SHT30;55064;49.636;12.164;2022-08-21T13:18:35;22.77;67.07
68248;SHT30;55064;49.636;12.164;2022-08-21T13:21:11;22.83;66.24
68248;SHT30;55064;49.636;12.164;2022-08-21T13:23:39;22.96;65.69
68248;SHT30;55064;49.636;12.164;2022-08-21T13:26:15;23.63;64.19
68248;SHT30;55064;49.636;12.164;2022-08-21T13:28:43;23.89;62.64
68248;SHT30;55064;49.636;12.164;2022-08-21T13:31:15;23.76;62.41
68248;SHT30;55064;49.636;12.164;2022-08-21T13:33:41;24.04;60.34
68248;SHT30;55064;49.636;12.164;2022-08-21T13:36:13;24.25;58.68
68248;SHT30;55064;49.636;12.164;2022-08-21T13:38:44;24.13;57.76
68248;SHT30;55064;49.636;12.164;2022-08-21T13:43:46;24.34;57.08
68248;SHT30;55064;49.636;12.164;2022-08-21T13:46:17;24.57;55.87
68248;SHT30;55064;49.636;12.164;2022-08-21T13:48:48;24.18;56.11
68248;SHT30;55064;49.636;12.164;2022-08-21T13:51:16;24.47;56.88
68248;SHT30;55064;49.636;12.164;2022-08-21T13:56:24;24.59;56.09
68248;SHT30;55064;49.636;12.164;2022-08-21T13:58:52;24.92;55.91
68248;SHT30;55064;49.636;12.164;2022-08-21T14:04:16;24.64;55.38
68248;SHT30;55064;49.636;12.164;2022-08-21T14:06:47;25.31;55.21
68248;SHT30;55064;49.636;12.164;2022-08-21T14:11:53;25.33;53.94
68248;SHT30;55064;49.636;12.164;2022-08-21T14:14:23;25.27;54.30
68248;SHT30;55064;49.636;12.164;2022-08-21T14:17:12;25.34;53.67
68248;SHT30;55064;49.636;12.164;2022-08-21T14:19:40;25.19;53.52
68248;SHT30;55064;49.636;12.164;2022-08-21T14:25:07;25.24;54.93
68248;SHT30;55064;49.636;12.164;2022-08-21T14:27:34;24.67;55.53
68248;SHT30;55064;49.636;12.164;2022-08-21T14:30:11;24.51;55.74
68248;SHT30;55064;49.636;12.164;2022-08-21T14:32:40;24.88;55.99
68248;SHT30;55064;49.636;12.164;2022-08-21T14:35:09;25.19;55.45
68248;SHT30;55064;49.636;12.164;2022-08-21T14:37:35;25.90;53.73
68248;SHT30;55064;49.636;12.164;2022-08-21T14:40:04;26.00;50.34
68248;SHT30;55064;49.636;12.164;2022-08-21T14:42:32;25.89;50.93
68248;SHT30;55064;49.636;12.164;2022-08-21T14:45:09;25.33;51.43
68248;SHT30;55064;49.636;12.164;2022-08-21T14:47:36;25.14;52.22
68248;SHT30;55064;49.636;12.164;2022-08-21T14:50:06;25.26;51.60
68248;SHT30;55064;49.636;12.164;2022-08-21T14:52:32;24.93;53.10
68248;SHT30;55064;49.636;12.164;2022-08-21T14:54:59;24.92;53.64
68248;SHT30;55064;49.636;12.164;2022-08-21T14:57:26;24.86;51.17
68248;SHT30;55064;49.636;12.164;2022-08-21T14:59:57;24.72;52.03
68248;SHT30;55064;49.636;12.164;2022-08-21T15:02:28;24.67;52.88
68248;SHT30;55064;49.636;12.164;2022-08-21T15:04:56;24.62;53.40
68248;SHT30;55064;49.636;12.164;2022-08-21T15:07:21;24.64;55.97
68248;SHT30;55064;49.636;12.164;2022-08-21T15:09:49;24.34;58.79
68248;SHT30;55064;49.636;12.164;2022-08-21T15:12:15;24.25;60.21
68248;SHT30;55064;49.636;12.164;2022-08-21T15:14:43;24.07;59.19
68248;SHT30;55064;49.636;12.164;2022-08-21T15:17:09;24.04;58.47
68248;SHT30;55064;49.636;12.164;2022-08-21T15:19:40;24.10;59.59
68248;SHT30;55064;49.636;12.164;2022-08-21T15:22:06;24.14;59.15
68248;SHT30;55064;49.636;12.164;2022-08-21T15:24:32;24.40;58.27
68248;SHT30;55064;49.636;12.164;2022-08-21T15:27:02;24.54;57.36
68248;SHT30;55064;49.636;12.164;2022-08-21T15:29:29;24.89;55.90
68248;SHT30;55064;49.636;12.164;2022-08-21T15:31:58;25.12;53.70
68248;SHT30;55064;49.636;12.164;2022-08-21T15:34:28;25.28;53.81
68248;SHT30;55064;49.636;12.164;2022-08-21T15:36:57;25.43;53.00
68248;SHT30;55064;49.636;12.164;2022-08-21T15:39:27;25.50;52.14
68248;SHT30;55064;49.636;12.164;2022-08-21T15:41:58;25.57;52.57
68248;SHT30;55064;49.636;12.164;2022-08-21T15:44:28;25.55;51.56
68248;SHT30;55064;49.636;12.164;2022-08-21T15:46:54;25.64;51.49
68248;SHT30;55064;49.636;12.164;2022-08-21T15:49:20;25.54;50.11
68248;SHT30;55064;49.636;12.164;2022-08-21T15:51:46;25.23;50.70
68248;SHT30;55064;49.636;12.164;2022-08-21T15:54:15;25.16;51.40
68248;SHT30;55064;49.636;12.164;2022-08-21T15:56:46;25.13;50.95
68248;SHT30;55064;49.636;12.164;2022-08-21T15:59:21;25.34;51.11
68248;SHT30;55064;49.636;12.164;2022-08-21T16:01:50;25.43;50.56
68248;SHT30;55064;49.636;12.164;2022-08-21T16:04:26;25.57;49.76
68248;SHT30;55064;49.636;12.164;2022-08-21T16:06:52;25.77;49.73
68248;SHT30;55064;49.636;12.164;2022-08-21T16:09:18;25.85;49.31
68248;SHT30;55064;49.636;12.164;2022-08-21T16:11:47;25.75;48.63
68248;SHT30;55064;49.636;12.164;2022-08-21T16:14:15;25.60;49.14
68248;SHT30;55064;49.636;12.164;2022-08-21T16:16:41;25.68;49.26
68248;SHT30;55064;49.636;12.164;2022-08-21T16:19:07;25.62;48.97
68248;SHT30;55064;49.636;12.164;2022-08-21T16:21:34;25.69;49.24
68248;SHT30;55064;49.636;12.164;2022-08-21T16:24:05;25.74;48.92
68248;SHT30;55064;49.636;12.164;2022-08-21T16:26:31;25.58;48.00
68248;SHT30;55064;49.636;12.164;2022-08-21T16:28:58;25.52;48.57
68248;SHT30;55064;49.636;12.164;2022-08-21T16:31:27;25.52;48.70
68248;SHT30;55064;49.636;12.164;2022-08-21T16:33:56;25.64;49.22
68248;SHT30;55064;49.636;12.164;2022-08-21T16:36:25;25.47;48.41
68248;SHT30;55064;49.636;12.164;2022-08-21T16:38:51;25.44;48.70
68248;SHT30;55064;49.636;12.164;2022-08-21T16:41:20;25.48;49.19
68248;SHT30;55064;49.636;12.164;2022-08-21T16:43:47;25.45;48.62
68248;SHT30;55064;49.636;12.164;2022-08-21T16:46:16;25.58;48.65
68248;SHT30;55064;49.636;12.164;2022-08-21T16:48:43;25.55;48.08
68248;SHT30;55064;49.636;12.164;2022-08-21T16:51:13;25.51;49.31
68248;SHT30;55064;49.636;12.164;2022-08-21T16:53:39;25.52;48.97
68248;SHT30;55064;49.636;12.164;2022-08-21T16:56:05;25.45;49.01
68248;SHT30;55064;49.636;12.164;2022-08-21T16:58:36;25.45;49.55
68248;SHT30;55064;49.636;12.164;2022-08-21T17:01:07;25.35;49.28
68248;SHT30;55064;49.636;12.164;2022-08-21T17:03:39;25.26;49.61
68248;SHT30;55064;49.636;12.164;2022-08-21T17:06:06;25.10;50.56
68248;SHT30;55064;49.636;12.164;2022-08-21T17:08:32;25.12;50.70